Strona główna
METAR-TAF:

METAR-TAF

Lotnisko :

Quakertown Airport

Quakertown, Pensylwania, Stany Zjednoczone

Szerokość geograficzna: 40-26-06N, Długość geograficzna: 075-22-54W, wysokość: 160 m

Aktualna obserwacja pogody

Raport powstał 32 minut temu, godzina 10:35 UTC
Wiatr 4 kt od wschód
Temperatura 2°C
Wilgotność 75%
Ciśnienie 1026 hPa
Widzialność: 16.1 km
Rozproszone chmury na wysokości 1500 ft
Przerywane chmury na wysokości 7500 ft
Przerywane chmury na wysokości 11000 ft

METAR: KUKT 181035Z AUTO 08004KT 10SM SCT015 BKN075 BKN110 02/M02 A3030 RMK A01

czas: 06:07 (11:07 UTC)


TAF: brakujący

Obserwacja i prognoza pogody dla ponad 4000 lotnisk (raport METAR i TAF).

Dostępne stacje oznaczono żółtymi i czerwonymi punktami na mapie.

Najedź kursorem aby zobaczyć nazwę stacji.

Kliknij aby zobaczyć obserwacje i prognozy pogody.

Aby zmienić mapę: kliknij na zielony przycisk z czarnym krzyżykiem, aby powiększyć; na zielony przycisk z myślnikiem, aby pomniejszyć; na zielone strzałki, aby przejść do map sąsiednich.


METAR-TAF: